Roald Amundsen — DARG — position and weather

sailwx.info

Track history (hours):
 
Tides and Currents Weather Stations Pressure Air Temp Water Temp Dewpoint Dewpoint Depression Visibility Wind Speed Wind Dir Waves Ship Positions

Roald Amundsen (Germany)

Built as a deep sea lugger in 1952. Converted and rigged as a traditional brig in 1992.

Ship's website: http://www.sailtraining.de/

Last reported at 2017-Sep-21 12:59 UTC. Time now 2017-Sep-22 15:16 UTC.
Position N 54°06' E 011°06'.

Length 50 m; beam 7.4 m; draft 4.5 m.

Type: Sailing vessel. MMSI: 211215170.

Date/timePositionNaut miles runAvg speedWind from/ knotsBaromVisibWave heightAir tempDewpointWater temp
2017-Sep-21 12:59N 54°06' E 011°06'3 6.1
2017-Sep-21 12:31N 54°06' E 011°11'5 1.4
2017-Sep-21 08:35N 54°12' E 011°14'0 3.4
2017-Sep-21 08:27N 54°12' E 011°13'2 3.9
2017-Sep-21 08:00N 54°13' E 011°11'1 2.8
2017-Sep-21 07:31N 54°14' E 011°09'0 0.9
2017-Sep-21 07:01N 54°14' E 011°08'0 0.0
2017-Sep-21 06:30N 54°14' E 011°08'0 0.0
2017-Sep-20 23:15N 54°14' E 011°08'0 0.0
2017-Sep-20 22:54N 54°14' E 011°08'0 0.0
2017-Sep-20 22:24N 54°14' E 011°08'0 0.0
2017-Sep-20 21:57N 54°14' E 011°08'0 0.0
2017-Sep-20 21:30N 54°14' E 011°08'0 0.0
2017-Sep-20 20:48N 54°14' E 011°08'0 0.0
2017-Sep-20 20:30N 54°14' E 011°08'0 0.0
2017-Sep-20 19:54N 54°14' E 011°08'2 1.0
2017-Sep-20 18:03N 54°14' E 011°11'0 7.0
2017-Sep-20 18:00N 54°15' E 011°11'4 1.2
2017-Sep-20 14:51N 54°14' E 011°18'3 4.1
2017-Sep-20 14:01N 54°17' E 011°17'2 3.5
2017-Sep-20 13:31N 54°19' E 011°16'2 4.2
2017-Sep-20 13:01N 54°21' E 011°16'16 3.3
2017-Sep-20 08:15N 54°08' E 011°31'1 2.9
2017-Sep-20 07:58N 54°07' E 011°31'10 4.9
2017-Sep-20 06:02N 54°16' E 011°24'0 5.1
2017-Sep-20 05:57N 54°16' E 011°24'2 5.1
2017-Sep-20 05:31N 54°18' E 011°22'2 4.3
2017-Sep-20 05:00N 54°20' E 011°21'2 3.6
2017-Sep-20 04:30N 54°22' E 011°19'16 4.2
2017-Sep-20 00:46N 54°09' E 011°35'6 3.2
2017-Sep-19 22:45N 54°16' E 011°34'1 4.9
2017-Sep-19 22:28N 54°17' E 011°34'2 5.2
2017-Sep-19 22:00N 54°20' E 011°34'3 5.5
2017-Sep-19 21:31N 54°22' E 011°34'2 4.8
2017-Sep-19 21:01N 54°25' E 011°33'2 3.5
2017-Sep-19 20:31N 54°26' E 011°34'2 3.1
2017-Sep-19 20:01N 54°28' E 011°34'4 3.0
2017-Sep-19 18:48N 54°24' E 011°35'1 4.8
2017-Sep-19 18:31N 54°23' E 011°37'3 5.0
2017-Sep-19 17:50N 54°20' E 011°40'7 4.5
2017-Sep-19 16:13N 54°14' E 011°45'1 3.7
2017-Sep-19 16:01N 54°13' E 011°45'1 2.8
2017-Sep-19 15:31N 54°12' E 011°46'0 0.7
2017-Sep-19 15:01N 54°11' E 011°46'2 3.3
2017-Sep-19 14:21N 54°10' E 011°49'3 3.4
2017-Sep-19 13:30N 54°13' E 011°49'2 4.2
2017-Sep-19 12:59N 54°15' E 011°49'2 4.3
2017-Sep-19 12:31N 54°17' E 011°49'2 3.7
2017-Sep-19 11:57N 54°19' E 011°49'1 3.3
2017-Sep-19 11:31N 54°21' E 011°49'2 3.4
2017-Sep-19 11:00N 54°22' E 011°49'10 3.5
2017-Sep-19 08:01N 54°12' E 011°55'0 4.0
2017-Sep-19 07:57N 54°12' E 011°55'1 1.2
2017-Sep-19 07:31N 54°12' E 011°55'4 4.4
2017-Sep-19 06:37N 54°15' E 011°52'1 4.9
2017-Sep-19 06:23N 54°16' E 011°51'2 4.2
2017-Sep-19 05:58N 54°17' E 011°49'1 2.5
2017-Sep-19 05:30N 54°18' E 011°48'1 2.7
2017-Sep-19 05:01N 54°20' E 011°47'2 2.5
2017-Sep-19 04:21N 54°21' E 011°47'1 2.0
2017-Sep-19 04:00N 54°22' E 011°47'1 1.5
2017-Sep-19 03:31N 54°23' E 011°48'1 1.2
2017-Sep-19 02:30N 54°21' E 011°48'2 3.2
2017-Sep-19 02:01N 54°20' E 011°48'1 2.8
2017-Sep-19 01:31N 54°18' E 011°49'2 3.6
2017-Sep-19 00:55N 54°17' E 011°51'1 2.2
2017-Sep-19 00:27N 54°16' E 011°53'1 2.7
2017-Sep-18 23:57N 54°17' E 011°51'2 3.1
2017-Sep-18 23:20N 54°18' E 011°48'1 2.0
2017-Sep-18 23:01N 54°19' E 011°47'1 1.6
2017-Sep-18 22:30N 54°19' E 011°46'1 1.5
2017-Sep-18 22:01N 54°19' E 011°45'1 1.1
2017-Sep-18 21:31N 54°20' E 011°44'0 0.7
2017-Sep-18 21:01N 54°20' E 011°44'1 0.6
2017-Sep-18 19:32N 54°19' E 011°43'0 0.7
2017-Sep-18 19:31N 54°19' E 011°43'0 0.4
2017-Sep-18 19:00N 54°19' E 011°42'0 0.2
2017-Sep-18 17:40N 54°19' E 011°42'0 0.4
2017-Sep-18 17:31N 54°19' E 011°42'0 0.3
2017-Sep-18 17:01N 54°19' E 011°42'0 0.8
2017-Sep-18 16:25N 54°20' E 011°42'1 1.4
2017-Sep-18 15:59N 54°20' E 011°43'1 1.6
2017-Sep-18 15:31N 54°21' E 011°44'1 1.5
2017-Sep-18 14:57N 54°21' E 011°45'1 1.9
2017-Sep-18 14:30N 54°22' E 011°46'1 1.6
2017-Sep-18 14:01N 54°23' E 011°47'2 2.3
2017-Sep-18 13:12N 54°21' E 011°47'1 3.3
2017-Sep-18 13:01N 54°20' E 011°47'2 3.3
2017-Sep-18 12:31N 54°19' E 011°47'2 3.2
2017-Sep-18 12:01N 54°17' E 011°46'1 2.3
2017-Sep-18 11:29N 54°16' E 011°46'1 1.6
2017-Sep-18 10:44N 54°15' E 011°45'1 2.4
2017-Sep-18 10:29N 54°14' E 011°45'2 2.9
2017-Sep-18 09:47N 54°12' E 011°47'1 2.5
2017-Sep-18 09:31N 54°12' E 011°47'1 1.4
2017-Sep-18 08:57N 54°11' E 011°48'0 0.1
2017-Sep-18 08:31N 54°11' E 011°48'0 0.4
2017-Sep-18 07:47N 54°11' E 011°48'1 2.3
2017-Sep-18 07:31N 54°11' E 011°49'1 2.7
2017-Sep-18 07:01N 54°12' E 011°51'1 3.0
2017-Sep-18 06:31N 54°13' E 011°53'2 3.2
2017-Sep-18 05:59N 54°14' E 011°52'2 4.8
2017-Sep-18 05:30N 54°16' E 011°49'3 3.9
2017-Sep-18 04:48N 54°17' E 011°45'1 2.5
2017-Sep-18 04:30N 54°16' E 011°45'1 1.6
2017-Sep-18 04:01N 54°16' E 011°43'1 1.6
2017-Sep-18 03:31N 54°16' E 011°42'1 0.9
2017-Sep-18 02:30N 54°17' E 011°41'1 1.5
2017-Sep-18 02:01N 54°17' E 011°40'1 1.8
2017-Sep-18 01:31N 54°18' E 011°38'1 1.9
2017-Sep-18 00:56N 54°19' E 011°37'1 1.9
2017-Sep-18 00:29N 54°20' E 011°37'1 1.8
2017-Sep-17 23:59N 54°20' E 011°36'1 2.0
2017-Sep-17 23:29N 54°21' E 011°35'1 2.2
2017-Sep-17 23:01N 54°22' E 011°34'1 2.7
2017-Sep-17 22:31N 54°23' E 011°32'1 2.0
2017-Sep-17 21:48N 54°24' E 011°31'1 1.5
2017-Sep-17 21:27N 54°24' E 011°30'1 1.8
2017-Sep-17 20:58N 54°25' E 011°28'1 2.1
2017-Sep-17 20:31N 54°25' E 011°27'1 2.2
2017-Sep-17 20:00N 54°25' E 011°25'1 1.0
2017-Sep-17 19:31N 54°24' E 011°25'1 1.6
2017-Sep-17 19:01N 54°24' E 011°24'2 2.9
2017-Sep-17 18:30N 54°22' E 011°24'13 2.2
2017-Sep-17 12:35N 54°11' E 011°34'0 0.1
2017-Sep-17 12:17N 54°11' E 011°34'0 0.1
2017-Sep-17 12:00N 54°11' E 011°34'1 0.5
2017-Sep-17 10:50N 54°11' E 011°34'3 1.5
2017-Sep-17 08:45N 54°08' E 011°31'3 7.9
2017-Sep-17 08:25N 54°07' E 011°27'3 6.9
2017-Sep-17 08:00N 54°04' E 011°27'4 7.2
2017-Sep-17 07:30N 54°01' E 011°22'3 5.5
2017-Sep-17 07:01N 53°59' E 011°20'2 4.2
2017-Sep-17 06:30N 53°58' E 011°17'0 0.3
2017-Sep-17 05:59N 53°58' E 011°17'0 0.0
2017-Sep-17 05:29N 53°58' E 011°17'0 0.0
2017-Sep-17 04:59N 53°58' E 011°17'0 0.0
2017-Sep-17 04:29N 53°58' E 011°17'0 0.0
2017-Sep-17 03:59N 53°58' E 011°17'0 0.0
2017-Sep-17 03:29N 53°58' E 011°17'0 0.0
2017-Sep-17 02:59N 53°58' E 011°17'0 0.0
2017-Sep-17 02:29N 53°58' E 011°17'0 0.0
2017-Sep-17 01:59N 53°58' E 011°17'0 0.0
2017-Sep-17 01:26N 53°58' E 011°17'0 0.0
2017-Sep-17 00:59N 53°58' E 011°17'0 0.0
2017-Sep-17 00:29N 53°58' E 011°17'0 0.0
2017-Sep-16 23:59N 53°58' E 011°17'0 0.0
2017-Sep-16 23:29N 53°58' E 011°17'0 0.0
2017-Sep-16 22:59N 53°58' E 011°17'0 0.0
2017-Sep-16 22:29N 53°58' E 011°17'0 0.0
2017-Sep-16 21:59N 53°58' E 011°17'0 0.0
2017-Sep-16 21:29N 53°58' E 011°17'0 0.0
2017-Sep-16 20:59N 53°58' E 011°17'0 0.0
2017-Sep-16 20:29N 53°58' E 011°17'0 0.0
2017-Sep-16 19:59N 53°58' E 011°17'0 0.0
2017-Sep-16 19:29N 53°58' E 011°17'0 0.0
2017-Sep-16 18:59N 53°58' E 011°17'0 0.0
2017-Sep-16 18:30N 53°58' E 011°17'3 5.1
2017-Sep-16 18:00N 53°58' E 011°21'4 7.0
2017-Sep-16 17:30N 53°56' E 011°25'2 4.3
2017-Sep-16 16:59N 53°54' E 011°27'0 0.0
2017-Sep-16 16:29N 53°54' E 011°27'0 0.0
2017-Sep-16 15:59N 53°54' E 011°27'0 0.0
2017-Sep-16 15:29N 53°54' E 011°27'0 0.0
2017-Sep-16 14:59N 53°54' E 011°27'0 0.0
2017-Sep-16 14:29N 53°54' E 011°27'0 0.0
2017-Sep-16 13:59N 53°54' E 011°27'0 0.0
2017-Sep-16 13:29N 53°54' E 011°27'0 0.0
2017-Sep-16 12:59N 53°54' E 011°27'0 0.0
2017-Sep-16 12:29N 53°54' E 011°27'0 0.0
2017-Sep-16 11:59N 53°54' E 011°27'0 0.0
2017-Sep-16 11:29N 53°54' E 011°27'0 0.0
2017-Sep-16 10:59N 53°54' E 011°27'0 0.0
2017-Sep-16 10:29N 53°54' E 011°27'0 0.0
2017-Sep-16 09:59N 53°54' E 011°27'0 0.0
2017-Sep-16 09:29N 53°54' E 011°27'0 0.0
2017-Sep-16 08:59N 53°54' E 011°27'0 0.0
2017-Sep-16 08:29N 53°54' E 011°27'0 0.0
2017-Sep-16 07:59N 53°54' E 011°27'0 0.0
2017-Sep-16 07:29N 53°54' E 011°27'0 0.0
2017-Sep-16 06:59N 53°54' E 011°27'0 0.0
2017-Sep-16 06:29N 53°54' E 011°27'0 0.0
2017-Sep-16 05:59N 53°54' E 011°27'0 0.0
2017-Sep-16 05:29N 53°54' E 011°27'0 0.0
2017-Sep-16 04:59N 53°54' E 011°27'0 0.0
2017-Sep-16 04:29N 53°54' E 011°27'0 0.0
2017-Sep-16 03:53N 53°54' E 011°27'0 0.0
2017-Sep-16 03:29N 53°54' E 011°27'0 0.0
2017-Sep-16 02:59N 53°54' E 011°27'0 0.0
2017-Sep-16 02:29N 53°54' E 011°27'0 0.0
2017-Sep-16 01:56N 53°54' E 011°27'0 0.0
2017-Sep-16 01:26N 53°54' E 011°27'0 0.0
2017-Sep-16 00:59N 53°54' E 011°27'0 0.0
2017-Sep-16 00:29N 53°54' E 011°27'0 0.0
2017-Sep-15 23:59N 53°54' E 011°27'0 0.0
2017-Sep-15 23:29N 53°54' E 011°27'0 0.0
2017-Sep-15 22:59N 53°54' E 011°27'0 0.0
2017-Sep-15 22:29N 53°54' E 011°27'0 0.0
2017-Sep-15 21:59N 53°54' E 011°27'0 0.0
2017-Sep-15 21:29N 53°54' E 011°27'0 0.0
2017-Sep-15 20:59N 53°54' E 011°27'0 0.0
2017-Sep-15 20:29N 53°54' E 011°27'0 0.0
2017-Sep-15 19:59N 53°54' E 011°27'0 0.0
2017-Sep-15 19:29N 53°54' E 011°27'0 0.0
2017-Sep-15 18:59N 53°54' E 011°27'0 0.0
2017-Sep-15 18:29N 53°54' E 011°27'0 0.0
2017-Sep-15 17:59N 53°54' E 011°27'0 0.0
2017-Sep-15 17:29N 53°54' E 011°27'0 0.0
2017-Sep-15 16:59N 53°54' E 011°27'0 0.0
2017-Sep-15 16:29N 53°54' E 011°27'0 0.0
2017-Sep-15 15:59N 53°54' E 011°27'0 0.0
2017-Sep-15 15:29N 53°54' E 011°27'0 0.0
2017-Sep-15 14:59N 53°54' E 011°27'0 0.0
2017-Sep-15 14:29N 53°54' E 011°27'0 0.0
2017-Sep-15 13:56N 53°54' E 011°27'0 0.0
2017-Sep-15 13:29N 53°54' E 011°27'0 0.0
2017-Sep-15 12:59N 53°54' E 011°27'0 0.0
2017-Sep-15 12:29N 53°54' E 011°27'0 0.0
2017-Sep-15 11:59N 53°54' E 011°27'0 0.0
2017-Sep-15 11:29N 53°54' E 011°27'0 0.0
2017-Sep-15 10:59N 53°54' E 011°27'0 0.0
2017-Sep-15 10:29N 53°54' E 011°27'0 0.0
2017-Sep-15 09:56N 53°54' E 011°27'0 0.0
2017-Sep-15 09:29N 53°54' E 011°27'0 0.0
2017-Sep-15 08:59N 53°54' E 011°27'0 0.0
2017-Sep-15 08:29N 53°54' E 011°27'0 0.0
2017-Sep-15 07:59N 53°54' E 011°27'0 0.0
2017-Sep-15 07:29N 53°54' E 011°27'0 0.0
2017-Sep-15 06:59N 53°54' E 011°27'0 0.0
2017-Sep-15 06:29N 53°54' E 011°27'0 0.0
2017-Sep-15 05:59N 53°54' E 011°27'0 0.0
2017-Sep-15 05:29N 53°54' E 011°27'0 0.0
2017-Sep-15 04:59N 53°54' E 011°27'0 0.0
2017-Sep-15 04:29N 53°54' E 011°27'0 0.0
2017-Sep-15 03:59N 53°54' E 011°27'0 0.0
2017-Sep-15 03:29N 53°54' E 011°27'0 0.0
2017-Sep-15 02:59N 53°54' E 011°27'0 0.0
2017-Sep-15 02:29N 53°54' E 011°27'0 0.0
2017-Sep-15 01:59N 53°54' E 011°27'0 0.0
2017-Sep-15 01:26N 53°54' E 011°27'0 0.0
2017-Sep-15 00:59N 53°54' E 011°27'0 0.0
2017-Sep-15 00:29N 53°54' E 011°27'0 0.0
2017-Sep-14 23:56N 53°54' E 011°27'0 0.0
2017-Sep-14 23:29N 53°54' E 011°27'0 0.0
2017-Sep-14 22:59N 53°54' E 011°27'0 0.0
2017-Sep-14 22:29N 53°54' E 011°27'0 0.0
2017-Sep-14 21:59N 53°54' E 011°27'0 0.0
2017-Sep-14 21:29N 53°54' E 011°27'0 0.0
2017-Sep-14 20:59N 53°54' E 011°27'0 0.0
2017-Sep-14 20:29N 53°54' E 011°27'0 0.0
2017-Sep-14 19:59N 53°54' E 011°27'0 0.0
2017-Sep-14 19:29N 53°54' E 011°27'0 0.0
2017-Sep-14 18:59N 53°54' E 011°27'0 0.0
2017-Sep-14 18:29N 53°54' E 011°27'0 0.0
2017-Sep-14 17:59N 53°54' E 011°27'0 0.0
2017-Sep-14 17:23N 53°54' E 011°27'0 0.0
2017-Sep-14 17:00N 53°54' E 011°27'0 0.2
2017-Sep-14 16:30N 53°54' E 011°27'2 3.5
2017-Sep-14 16:00N 53°55' E 011°26'2 4.5
2017-Sep-14 15:30N 53°57' E 011°23'3 6.2
2017-Sep-14 15:00N 53°60' E 011°20'2 4.4
2017-Sep-14 14:30N 54°01' E 011°22'2 4.8
2017-Sep-14 14:00N 54°03' E 011°25'9 4.3
2017-Sep-14 11:57N 54°08' E 011°13'2 5.0
2017-Sep-14 11:30N 54°06' E 011°14'2 4.9
2017-Sep-14 11:00N 54°04' E 011°16'2 0.7
2017-Sep-14 07:55N 54°03' E 011°12'2 5.4
2017-Sep-14 07:30N 54°01' E 011°13'1 1.9
2017-Sep-14 06:59N 53°60' E 011°13'0 0.1
2017-Sep-14 06:29N 53°60' E 011°13'0 0.0
2017-Sep-14 05:59N 53°60' E 011°13'0 0.0
2017-Sep-14 05:29N 53°60' E 011°13'0 0.0
2017-Sep-14 04:59N 53°60' E 011°13'0 0.0
2017-Sep-14 04:29N 53°60' E 011°13'0 0.0
2017-Sep-14 03:59N 53°60' E 011°13'0 0.0
2017-Sep-14 03:23N 53°60' E 011°13'0 0.0
2017-Sep-14 02:59N 53°60' E 011°13'0 0.0
2017-Sep-14 02:29N 53°60' E 011°13'0 0.0
2017-Sep-14 01:59N 53°60' E 011°13'0 0.0
2017-Sep-14 01:26N 53°60' E 011°13'0 0.0
2017-Sep-14 00:59N 53°60' E 011°13'0 0.0
2017-Sep-14 00:29N 53°60' E 011°13'0 0.0
2017-Sep-13 23:59N 53°60' E 011°13'0 0.0
2017-Sep-13 23:29N 53°60' E 011°13'0 0.0
2017-Sep-13 22:59N 53°60' E 011°13'0 0.0
2017-Sep-13 22:29N 53°60' E 011°13'0 0.0
2017-Sep-13 21:59N 53°60' E 011°13'0 0.0
2017-Sep-13 21:29N 53°60' E 011°13'0 0.0
2017-Sep-13 20:59N 53°60' E 011°13'0 0.0
2017-Sep-13 20:26N 53°60' E 011°13'0 0.0
2017-Sep-13 19:59N 53°60' E 011°13'0 0.0
2017-Sep-13 19:29N 53°60' E 011°13'0 0.0
2017-Sep-13 18:50N 53°60' E 011°13'0 0.0
2017-Sep-13 18:29N 53°60' E 011°13'0 0.0
2017-Sep-13 17:59N 53°60' E 011°13'0 0.0
2017-Sep-13 17:26N 53°60' E 011°13'0 0.0
2017-Sep-13 16:59N 53°60' E 011°13'0 0.0
2017-Sep-13 16:29N 53°60' E 011°13'0 0.1
2017-Sep-13 15:59N 53°60' E 011°13'0 0.0
2017-Sep-13 15:29N 53°60' E 011°13'0 0.0
2017-Sep-13 14:59N 53°60' E 011°13'0 0.0
2017-Sep-13 14:17N 53°60' E 011°13'0 0.0
2017-Sep-13 13:59N 53°60' E 011°13'0 0.0
2017-Sep-13 12:50N 53°60' E 011°13'0 0.0
2017-Sep-13 12:29N 53°60' E 011°13'0 0.0
2017-Sep-13 11:59N 53°60' E 011°13'0 0.1
2017-Sep-13 11:26N 53°60' E 011°13'0 0.0
2017-Sep-13 10:59N 53°60' E 011°13'0 0.0
2017-Sep-13 10:26N 53°60' E 011°13'0 0.0
2017-Sep-13 09:56N 53°60' E 011°13'0 0.0
2017-Sep-13 09:20N 53°60' E 011°13'0 0.0
2017-Sep-13 08:53N 53°60' E 011°13'0 0.0
2017-Sep-13 08:29N 53°60' E 011°13'0 0.0
2017-Sep-13 07:56N 53°60' E 011°13'0 0.0
2017-Sep-13 07:17N 53°60' E 011°13'0 0.0
2017-Sep-13 06:59N 53°60' E 011°13'0 0.0
2017-Sep-13 06:29N 53°60' E 011°13'0 0.0
2017-Sep-13 05:59N 53°60' E 011°13'0 0.0
2017-Sep-13 05:29N 53°60' E 011°13'0 0.0
2017-Sep-13 04:59N 53°60' E 011°13'0 0.0
2017-Sep-13 04:29N 53°60' E 011°13'0 0.0
2017-Sep-13 03:59N 53°60' E 011°13'0 0.0
2017-Sep-13 03:29N 53°60' E 011°13'0 0.0
2017-Sep-13 02:59N 53°60' E 011°13'0 0.0
2017-Sep-13 02:29N 53°60' E 011°13'0 0.0
2017-Sep-13 01:59N 53°60' E 011°13'0 0.0
2017-Sep-13 01:26N 53°60' E 011°13'0 0.0
2017-Sep-13 00:59N 53°60' E 011°13'0 0.0
2017-Sep-13 00:29N 53°60' E 011°13'0 0.0
2017-Sep-12 23:59N 53°60' E 011°13'0 0.0
2017-Sep-12 23:29N 53°60' E 011°13'0 0.0
2017-Sep-12 22:59N 53°60' E 011°13'0 0.0
2017-Sep-12 22:29N 53°60' E 011°13'0 0.0
2017-Sep-12 21:59N 53°60' E 011°13'0 0.0
2017-Sep-12 21:29N 53°60' E 011°13'0 0.0
2017-Sep-12 20:59N 53°60' E 011°13'0 0.0
2017-Sep-12 20:29N 53°60' E 011°13'0 0.0
2017-Sep-12 19:59N 53°60' E 011°13'0 0.0
2017-Sep-12 19:29N 53°60' E 011°13'0 0.0
2017-Sep-12 18:59N 53°60' E 011°13'0 0.0
2017-Sep-12 18:29N 53°60' E 011°13'1 1.8
2017-Sep-12 18:00N 54°00' E 011°14'3 5.4
2017-Sep-12 17:30N 54°03' E 011°16'4 5.1
2017-Sep-12 16:45N 54°05' E 011°21'1 5.1
2017-Sep-12 16:30N 54°06' E 011°23'13 2.1
2017-Sep-12 10:25N 54°15' E 011°09'1 3.0
2017-Sep-12 10:00N 54°16' E 011°08'3 5.2
2017-Sep-12 09:30N 54°19' E 011°10'3 5.5
2017-Sep-12 09:00N 54°20' E 011°13'2 4.8
2017-Sep-12 08:30N 54°22' E 011°17'2 3.8
2017-Sep-12 08:00N 54°23' E 011°19'1 2.6
2017-Sep-12 07:30N 54°24' E 011°21'2 3.4
2017-Sep-12 07:00N 54°26' E 011°21'1 2.4
2017-Sep-12 06:30N 54°26' E 011°19'0 0.1
2017-Sep-12 04:13N 54°26' E 011°19'0 0.0
2017-Sep-12 03:52N 54°26' E 011°19'0 0.0
2017-Sep-12 03:25N 54°26' E 011°19'0 0.0
2017-Sep-12 02:55N 54°26' E 011°19'0 0.0
2017-Sep-12 02:28N 54°26' E 011°19'0 0.0
2017-Sep-12 01:58N 54°26' E 011°19'0 0.0
2017-Sep-12 01:25N 54°26' E 011°19'0 0.0
2017-Sep-12 00:58N 54°26' E 011°19'0 0.0
2017-Sep-12 00:28N 54°26' E 011°19'0 0.0
2017-Sep-11 23:58N 54°26' E 011°19'0 0.0
2017-Sep-11 23:28N 54°26' E 011°19'0 0.0
2017-Sep-11 22:58N 54°26' E 011°19'0 0.0
2017-Sep-11 22:28N 54°26' E 011°19'0 0.0
2017-Sep-11 21:58N 54°26' E 011°19'0 0.0
2017-Sep-11 21:28N 54°26' E 011°19'0 0.0
2017-Sep-11 20:58N 54°26' E 011°19'0 0.0
2017-Sep-11 20:28N 54°26' E 011°19'0 0.0
2017-Sep-11 19:58N 54°26' E 011°19'0 0.0
2017-Sep-11 19:28N 54°26' E 011°19'0 0.0
2017-Sep-11 18:58N 54°26' E 011°19'0 0.0
2017-Sep-11 18:28N 54°26' E 011°19'0 0.0
2017-Sep-11 17:58N 54°26' E 011°19'0 0.0
2017-Sep-11 17:28N 54°26' E 011°19'0 0.0
2017-Sep-11 16:55N 54°26' E 011°19'0 0.0
2017-Sep-11 16:28N 54°26' E 011°19'0 0.0
2017-Sep-11 15:58N 54°26' E 011°18'0 0.0
2017-Sep-11 15:29N 54°26' E 011°18'0 0.0
2017-Sep-11 15:00N 54°26' E 011°18'5 4.7
2017-Sep-11 14:02N 54°24' E 011°25'0 6.7
2017-Sep-11 14:00N 54°23' E 011°25'3 5.7
2017-Sep-11 13:30N 54°22' E 011°29'3 6.1
2017-Sep-11 13:00N 54°22' E 011°34'  
Track history (hours):
 
Tides and Currents Weather Stations Pressure Air Temp Water Temp Dewpoint Dewpoint Depression Visibility Wind Speed Wind Dir Waves Ship Positions

Roald Amundsen (Germany)

Built as a deep sea lugger in 1952. Converted and rigged as a traditional brig in 1992.

Ship's website: http://www.sailtraining.de/

Last reported at 2017-Sep-21 12:59 UTC. Time now 2017-Sep-22 15:16 UTC.
Position N 54°06' E 011°06'.

Length 50 m; beam 7.4 m; draft 4.5 m.

Type: Sailing vessel. MMSI: 211215170.

Date/timePositionNaut miles runAvg speedWind from/ knotsBaromVisibWave heightAir tempDewpointWater temp
2017-Sep-21 12:59N 54°06' E 011°06'3 6.1
2017-Sep-21 12:31N 54°06' E 011°11'5 1.4
2017-Sep-21 08:35N 54°12' E 011°14'0 3.4
2017-Sep-21 08:27N 54°12' E 011°13'2 3.9
2017-Sep-21 08:00N 54°13' E 011°11'1 2.8
2017-Sep-21 07:31N 54°14' E 011°09'0 0.9
2017-Sep-21 07:01N 54°14' E 011°08'0 0.0
2017-Sep-21 06:30N 54°14' E 011°08'0 0.0
2017-Sep-20 23:15N 54°14' E 011°08'0 0.0
2017-Sep-20 22:54N 54°14' E 011°08'0 0.0
2017-Sep-20 22:24N 54°14' E 011°08'0 0.0
2017-Sep-20 21:57N 54°14' E 011°08'0 0.0
2017-Sep-20 21:30N 54°14' E 011°08'0 0.0
2017-Sep-20 20:48N 54°14' E 011°08'0 0.0
2017-Sep-20 20:30N 54°14' E 011°08'0 0.0
2017-Sep-20 19:54N 54°14' E 011°08'2 1.0
2017-Sep-20 18:03N 54°14' E 011°11'0 7.0
2017-Sep-20 18:00N 54°15' E 011°11'4 1.2
2017-Sep-20 14:51N 54°14' E 011°18'3 4.1
2017-Sep-20 14:01N 54°17' E 011°17'2 3.5
2017-Sep-20 13:31N 54°19' E 011°16'2 4.2
2017-Sep-20 13:01N 54°21' E 011°16'16 3.3
2017-Sep-20 08:15N 54°08' E 011°31'1 2.9
2017-Sep-20 07:58N 54°07' E 011°31'10 4.9
2017-Sep-20 06:02N 54°16' E 011°24'0 5.1
2017-Sep-20 05:57N 54°16' E 011°24'2 5.1
2017-Sep-20 05:31N 54°18' E 011°22'2 4.3
2017-Sep-20 05:00N 54°20' E 011°21'2 3.6
2017-Sep-20 04:30N 54°22' E 011°19'16 4.2
2017-Sep-20 00:46N 54°09' E 011°35'6 3.2
2017-Sep-19 22:45N 54°16' E 011°34'1 4.9
2017-Sep-19 22:28N 54°17' E 011°34'2 5.2
2017-Sep-19 22:00N 54°20' E 011°34'3 5.5
2017-Sep-19 21:31N 54°22' E 011°34'2 4.8
2017-Sep-19 21:01N 54°25' E 011°33'2 3.5
2017-Sep-19 20:31N 54°26' E 011°34'2 3.1
2017-Sep-19 20:01N 54°28' E 011°34'4 3.0
2017-Sep-19 18:48N 54°24' E 011°35'1 4.8
2017-Sep-19 18:31N 54°23' E 011°37'3 5.0
2017-Sep-19 17:50N 54°20' E 011°40'7 4.5
2017-Sep-19 16:13N 54°14' E 011°45'1 3.7
2017-Sep-19 16:01N 54°13' E 011°45'1 2.8
2017-Sep-19 15:31N 54°12' E 011°46'0 0.7
2017-Sep-19 15:01N 54°11' E 011°46'2 3.3
2017-Sep-19 14:21N 54°10' E 011°49'3 3.4
2017-Sep-19 13:30N 54°13' E 011°49'2 4.2
2017-Sep-19 12:59N 54°15' E 011°49'2 4.3
2017-Sep-19 12:31N 54°17' E 011°49'2 3.7
2017-Sep-19 11:57N 54°19' E 011°49'1 3.3
2017-Sep-19 11:31N 54°21' E 011°49'2 3.4
2017-Sep-19 11:00N 54°22' E 011°49'10 3.5
2017-Sep-19 08:01N 54°12' E 011°55'0 4.0
2017-Sep-19 07:57N 54°12' E 011°55'1 1.2
2017-Sep-19 07:31N 54°12' E 011°55'4 4.4
2017-Sep-19 06:37N 54°15' E 011°52'1 4.9
2017-Sep-19 06:23N 54°16' E 011°51'2 4.2
2017-Sep-19 05:58N 54°17' E 011°49'1 2.5
2017-Sep-19 05:30N 54°18' E 011°48'1 2.7
2017-Sep-19 05:01N 54°20' E 011°47'2 2.5
2017-Sep-19 04:21N 54°21' E 011°47'1 2.0
2017-Sep-19 04:00N 54°22' E 011°47'1 1.5
2017-Sep-19 03:31N 54°23' E 011°48'1 1.2
2017-Sep-19 02:30N 54°21' E 011°48'2 3.2
2017-Sep-19 02:01N 54°20' E 011°48'1 2.8
2017-Sep-19 01:31N 54°18' E 011°49'2 3.6
2017-Sep-19 00:55N 54°17' E 011°51'1 2.2
2017-Sep-19 00:27N 54°16' E 011°53'1 2.7
2017-Sep-18 23:57N 54°17' E 011°51'2 3.1
2017-Sep-18 23:20N 54°18' E 011°48'1 2.0
2017-Sep-18 23:01N 54°19' E 011°47'1 1.6
2017-Sep-18 22:30N 54°19' E 011°46'1 1.5
2017-Sep-18 22:01N 54°19' E 011°45'1 1.1
2017-Sep-18 21:31N 54°20' E 011°44'0 0.7
2017-Sep-18 21:01N 54°20' E 011°44'1 0.6
2017-Sep-18 19:32N 54°19' E 011°43'0 0.7
2017-Sep-18 19:31N 54°19' E 011°43'0 0.4
2017-Sep-18 19:00N 54°19' E 011°42'0 0.2
2017-Sep-18 17:40N 54°19' E 011°42'0 0.4
2017-Sep-18 17:31N 54°19' E 011°42'0 0.3
2017-Sep-18 17:01N 54°19' E 011°42'0 0.8
2017-Sep-18 16:25N 54°20' E 011°42'1 1.4
2017-Sep-18 15:59N 54°20' E 011°43'1 1.6
2017-Sep-18 15:31N 54°21' E 011°44'1 1.5
2017-Sep-18 14:57N 54°21' E 011°45'1 1.9
2017-Sep-18 14:30N 54°22' E 011°46'1 1.6
2017-Sep-18 14:01N 54°23' E 011°47'2 2.3
2017-Sep-18 13:12N 54°21' E 011°47'1 3.3
2017-Sep-18 13:01N 54°20' E 011°47'2 3.3
2017-Sep-18 12:31N 54°19' E 011°47'2 3.2
2017-Sep-18 12:01N 54°17' E 011°46'1 2.3
2017-Sep-18 11:29N 54°16' E 011°46'1 1.6
2017-Sep-18 10:44N 54°15' E 011°45'1 2.4
2017-Sep-18 10:29N 54°14' E 011°45'2 2.9
2017-Sep-18 09:47N 54°12' E 011°47'1 2.5
2017-Sep-18 09:31N 54°12' E 011°47'1 1.4
2017-Sep-18 08:57N 54°11' E 011°48'0 0.1
2017-Sep-18 08:31N 54°11' E 011°48'0 0.4
2017-Sep-18 07:47N 54°11' E 011°48'1 2.3
2017-Sep-18 07:31N 54°11' E 011°49'1 2.7
2017-Sep-18 07:01N 54°12' E 011°51'1 3.0
2017-Sep-18 06:31N 54°13' E 011°53'2 3.2
2017-Sep-18 05:59N 54°14' E 011°52'2 4.8
2017-Sep-18 05:30N 54°16' E 011°49'3 3.9
2017-Sep-18 04:48N 54°17' E 011°45'1 2.5
2017-Sep-18 04:30N 54°16' E 011°45'1 1.6
2017-Sep-18 04:01N 54°16' E 011°43'1 1.6
2017-Sep-18 03:31N 54°16' E 011°42'1 0.9
2017-Sep-18 02:30N 54°17' E 011°41'1 1.5
2017-Sep-18 02:01N 54°17' E 011°40'1 1.8
2017-Sep-18 01:31N 54°18' E 011°38'1 1.9
2017-Sep-18 00:56N 54°19' E 011°37'1 1.9
2017-Sep-18 00:29N 54°20' E 011°37'1 1.8
2017-Sep-17 23:59N 54°20' E 011°36'1 2.0
2017-Sep-17 23:29N 54°21' E 011°35'1 2.2
2017-Sep-17 23:01N 54°22' E 011°34'1 2.7
2017-Sep-17 22:31N 54°23' E 011°32'1 2.0
2017-Sep-17 21:48N 54°24' E 011°31'1 1.5
2017-Sep-17 21:27N 54°24' E 011°30'1 1.8
2017-Sep-17 20:58N 54°25' E 011°28'1 2.1
2017-Sep-17 20:31N 54°25' E 011°27'1 2.2
2017-Sep-17 20:00N 54°25' E 011°25'1 1.0
2017-Sep-17 19:31N 54°24' E 011°25'1 1.6
2017-Sep-17 19:01N 54°24' E 011°24'2 2.9
2017-Sep-17 18:30N 54°22' E 011°24'13 2.2
2017-Sep-17 12:35N 54°11' E 011°34'0 0.1
2017-Sep-17 12:17N 54°11' E 011°34'0 0.1
2017-Sep-17 12:00N 54°11' E 011°34'1 0.5
2017-Sep-17 10:50N 54°11' E 011°34'3 1.5
2017-Sep-17 08:45N 54°08' E 011°31'3 7.9
2017-Sep-17 08:25N 54°07' E 011°27'3 6.9
2017-Sep-17 08:00N 54°04' E 011°27'4 7.2
2017-Sep-17 07:30N 54°01' E 011°22'3 5.5
2017-Sep-17 07:01N 53°59' E 011°20'2 4.2
2017-Sep-17 06:30N 53°58' E 011°17'0 0.3
2017-Sep-17 05:59N 53°58' E 011°17'0 0.0
2017-Sep-17 05:29N 53°58' E 011°17'0 0.0
2017-Sep-17 04:59N 53°58' E 011°17'0 0.0
2017-Sep-17 04:29N 53°58' E 011°17'0 0.0
2017-Sep-17 03:59N 53°58' E 011°17'0 0.0
2017-Sep-17 03:29N 53°58' E 011°17'0 0.0
2017-Sep-17 02:59N 53°58' E 011°17'0 0.0
2017-Sep-17 02:29N 53°58' E 011°17'0 0.0
2017-Sep-17 01:59N 53°58' E 011°17'0 0.0
2017-Sep-17 01:26N 53°58' E 011°17'0 0.0
2017-Sep-17 00:59N 53°58' E 011°17'0 0.0
2017-Sep-17 00:29N 53°58' E 011°17'0 0.0
2017-Sep-16 23:59N 53°58' E 011°17'0 0.0
2017-Sep-16 23:29N 53°58' E 011°17'0 0.0
2017-Sep-16 22:59N 53°58' E 011°17'0 0.0
2017-Sep-16 22:29N 53°58' E 011°17'0 0.0
2017-Sep-16 21:59N 53°58' E 011°17'0 0.0
2017-Sep-16 21:29N 53°58' E 011°17'0 0.0
2017-Sep-16 20:59N 53°58' E 011°17'0 0.0
2017-Sep-16 20:29N 53°58' E 011°17'0 0.0
2017-Sep-16 19:59N 53°58' E 011°17'0 0.0
2017-Sep-16 19:29N 53°58' E 011°17'0 0.0
2017-Sep-16 18:59N 53°58' E 011°17'0 0.0
2017-Sep-16 18:30N 53°58' E 011°17'3 5.1
2017-Sep-16 18:00N 53°58' E 011°21'4 7.0
2017-Sep-16 17:30N 53°56' E 011°25'2 4.3
2017-Sep-16 16:59N 53°54' E 011°27'0 0.0
2017-Sep-16 16:29N 53°54' E 011°27'0 0.0
2017-Sep-16 15:59N 53°54' E 011°27'0 0.0
2017-Sep-16 15:29N 53°54' E 011°27'0 0.0
2017-Sep-16 14:59N 53°54' E 011°27'0 0.0
2017-Sep-16 14:29N 53°54' E 011°27'0 0.0
2017-Sep-16 13:59N 53°54' E 011°27'0 0.0
2017-Sep-16 13:29N 53°54' E 011°27'0 0.0
2017-Sep-16 12:59N 53°54' E 011°27'0 0.0
2017-Sep-16 12:29N 53°54' E 011°27'0 0.0
2017-Sep-16 11:59N 53°54' E 011°27'0 0.0
2017-Sep-16 11:29N 53°54' E 011°27'0 0.0
2017-Sep-16 10:59N 53°54' E 011°27'0 0.0
2017-Sep-16 10:29N 53°54' E 011°27'0 0.0
2017-Sep-16 09:59N 53°54' E 011°27'0 0.0
2017-Sep-16 09:29N 53°54' E 011°27'0 0.0
2017-Sep-16 08:59N 53°54' E 011°27'0 0.0
2017-Sep-16 08:29N 53°54' E 011°27'0 0.0
2017-Sep-16 07:59N 53°54' E 011°27'0 0.0
2017-Sep-16 07:29N 53°54' E 011°27'0 0.0
2017-Sep-16 06:59N 53°54' E 011°27'0 0.0
2017-Sep-16 06:29N 53°54' E 011°27'0 0.0
2017-Sep-16 05:59N 53°54' E 011°27'0 0.0
2017-Sep-16 05:29N 53°54' E 011°27'0 0.0
2017-Sep-16 04:59N 53°54' E 011°27'0 0.0
2017-Sep-16 04:29N 53°54' E 011°27'0 0.0
2017-Sep-16 03:53N 53°54' E 011°27'0 0.0
2017-Sep-16 03:29N 53°54' E 011°27'0 0.0
2017-Sep-16 02:59N 53°54' E 011°27'0 0.0
2017-Sep-16 02:29N 53°54' E 011°27'0 0.0
2017-Sep-16 01:56N 53°54' E 011°27'0 0.0
2017-Sep-16 01:26N 53°54' E 011°27'0 0.0
2017-Sep-16 00:59N 53°54' E 011°27'0 0.0
2017-Sep-16 00:29N 53°54' E 011°27'0 0.0
2017-Sep-15 23:59N 53°54' E 011°27'0 0.0
2017-Sep-15 23:29N 53°54' E 011°27'0 0.0
2017-Sep-15 22:59N 53°54' E 011°27'0 0.0
2017-Sep-15 22:29N 53°54' E 011°27'0 0.0
2017-Sep-15 21:59N 53°54' E 011°27'0 0.0
2017-Sep-15 21:29N 53°54' E 011°27'0 0.0
2017-Sep-15 20:59N 53°54' E 011°27'0 0.0
2017-Sep-15 20:29N 53°54' E 011°27'0 0.0
2017-Sep-15 19:59N 53°54' E 011°27'0 0.0
2017-Sep-15 19:29N 53°54' E 011°27'0 0.0
2017-Sep-15 18:59N 53°54' E 011°27'0 0.0
2017-Sep-15 18:29N 53°54' E 011°27'0 0.0
2017-Sep-15 17:59N 53°54' E 011°27'0 0.0
2017-Sep-15 17:29N 53°54' E 011°27'0 0.0
2017-Sep-15 16:59N 53°54' E 011°27'0 0.0
2017-Sep-15 16:29N 53°54' E 011°27'0 0.0
2017-Sep-15 15:59N 53°54' E 011°27'0 0.0
2017-Sep-15 15:29N 53°54' E 011°27'0 0.0
2017-Sep-15 14:59N 53°54' E 011°27'0 0.0
2017-Sep-15 14:29N 53°54' E 011°27'0 0.0
2017-Sep-15 13:56N 53°54' E 011°27'0 0.0
2017-Sep-15 13:29N 53°54' E 011°27'0 0.0
2017-Sep-15 12:59N 53°54' E 011°27'0 0.0
2017-Sep-15 12:29N 53°54' E 011°27'0 0.0
2017-Sep-15 11:59N 53°54' E 011°27'0 0.0
2017-Sep-15 11:29N 53°54' E 011°27'0 0.0
2017-Sep-15 10:59N 53°54' E 011°27'0 0.0
2017-Sep-15 10:29N 53°54' E 011°27'0 0.0
2017-Sep-15 09:56N 53°54' E 011°27'0 0.0
2017-Sep-15 09:29N 53°54' E 011°27'0 0.0
2017-Sep-15 08:59N 53°54' E 011°27'0 0.0
2017-Sep-15 08:29N 53°54' E 011°27'0 0.0
2017-Sep-15 07:59N 53°54' E 011°27'0 0.0
2017-Sep-15 07:29N 53°54' E 011°27'0 0.0
2017-Sep-15 06:59N 53°54' E 011°27'0 0.0
2017-Sep-15 06:29N 53°54' E 011°27'0 0.0
2017-Sep-15 05:59N 53°54' E 011°27'0 0.0
2017-Sep-15 05:29N 53°54' E 011°27'0 0.0
2017-Sep-15 04:59N 53°54' E 011°27'0 0.0
2017-Sep-15 04:29N 53°54' E 011°27'0 0.0
2017-Sep-15 03:59N 53°54' E 011°27'0 0.0
2017-Sep-15 03:29N 53°54' E 011°27'0 0.0
2017-Sep-15 02:59N 53°54' E 011°27'0 0.0
2017-Sep-15 02:29N 53°54' E 011°27'0 0.0
2017-Sep-15 01:59N 53°54' E 011°27'0 0.0
2017-Sep-15 01:26N 53°54' E 011°27'0 0.0
2017-Sep-15 00:59N 53°54' E 011°27'0 0.0
2017-Sep-15 00:29N 53°54' E 011°27'0 0.0
2017-Sep-14 23:56N 53°54' E 011°27'0 0.0
2017-Sep-14 23:29N 53°54' E 011°27'0 0.0
2017-Sep-14 22:59N 53°54' E 011°27'0 0.0
2017-Sep-14 22:29N 53°54' E 011°27'0 0.0
2017-Sep-14 21:59N 53°54' E 011°27'0 0.0
2017-Sep-14 21:29N 53°54' E 011°27'0 0.0
2017-Sep-14 20:59N 53°54' E 011°27'0 0.0
2017-Sep-14 20:29N 53°54' E 011°27'0 0.0
2017-Sep-14 19:59N 53°54' E 011°27'0 0.0
2017-Sep-14 19:29N 53°54' E 011°27'0 0.0
2017-Sep-14 18:59N 53°54' E 011°27'0 0.0
2017-Sep-14 18:29N 53°54' E 011°27'0 0.0
2017-Sep-14 17:59N 53°54' E 011°27'0 0.0
2017-Sep-14 17:23N 53°54' E 011°27'0 0.0
2017-Sep-14 17:00N 53°54' E 011°27'0 0.2
2017-Sep-14 16:30N 53°54' E 011°27'2 3.5
2017-Sep-14 16:00N 53°55' E 011°26'2 4.5
2017-Sep-14 15:30N 53°57' E 011°23'3 6.2
2017-Sep-14 15:00N 53°60' E 011°20'2 4.4
2017-Sep-14 14:30N 54°01' E 011°22'2 4.8
2017-Sep-14 14:00N 54°03' E 011°25'9 4.3
2017-Sep-14 11:57N 54°08' E 011°13'2 5.0
2017-Sep-14 11:30N 54°06' E 011°14'2 4.9
2017-Sep-14 11:00N 54°04' E 011°16'2 0.7
2017-Sep-14 07:55N 54°03' E 011°12'2 5.4
2017-Sep-14 07:30N 54°01' E 011°13'1 1.9
2017-Sep-14 06:59N 53°60' E 011°13'0 0.1
2017-Sep-14 06:29N 53°60' E 011°13'0 0.0
2017-Sep-14 05:59N 53°60' E 011°13'0 0.0
2017-Sep-14 05:29N 53°60' E 011°13'0 0.0
2017-Sep-14 04:59N 53°60' E 011°13'0 0.0
2017-Sep-14 04:29N 53°60' E 011°13'0 0.0
2017-Sep-14 03:59N 53°60' E 011°13'0 0.0
2017-Sep-14 03:23N 53°60' E 011°13'0 0.0
2017-Sep-14 02:59N 53°60' E 011°13'0 0.0
2017-Sep-14 02:29N 53°60' E 011°13'0 0.0
2017-Sep-14 01:59N 53°60' E 011°13'0 0.0
2017-Sep-14 01:26N 53°60' E 011°13'0 0.0
2017-Sep-14 00:59N 53°60' E 011°13'0 0.0
2017-Sep-14 00:29N 53°60' E 011°13'0 0.0
2017-Sep-13 23:59N 53°60' E 011°13'0 0.0
2017-Sep-13 23:29N 53°60' E 011°13'0 0.0
2017-Sep-13 22:59N 53°60' E 011°13'0 0.0
2017-Sep-13 22:29N 53°60' E 011°13'0 0.0
2017-Sep-13 21:59N 53°60' E 011°13'0 0.0
2017-Sep-13 21:29N 53°60' E 011°13'0 0.0
2017-Sep-13 20:59N 53°60' E 011°13'0 0.0
2017-Sep-13 20:26N 53°60' E 011°13'0 0.0
2017-Sep-13 19:59N 53°60' E 011°13'0 0.0
2017-Sep-13 19:29N 53°60' E 011°13'0 0.0
2017-Sep-13 18:50N 53°60' E 011°13'0 0.0
2017-Sep-13 18:29N 53°60' E 011°13'0 0.0
2017-Sep-13 17:59N 53°60' E 011°13'0 0.0
2017-Sep-13 17:26N 53°60' E 011°13'0 0.0
2017-Sep-13 16:59N 53°60' E 011°13'0 0.0
2017-Sep-13 16:29N 53°60' E 011°13'0 0.1
2017-Sep-13 15:59N 53°60' E 011°13'0 0.0
2017-Sep-13 15:29N 53°60' E 011°13'0 0.0
2017-Sep-13 14:59N 53°60' E 011°13'0 0.0
2017-Sep-13 14:17N 53°60' E 011°13'0 0.0
2017-Sep-13 13:59N 53°60' E 011°13'0 0.0
2017-Sep-13 12:50N 53°60' E 011°13'0 0.0
2017-Sep-13 12:29N 53°60' E 011°13'0 0.0
2017-Sep-13 11:59N 53°60' E 011°13'0 0.1
2017-Sep-13 11:26N 53°60' E 011°13'0 0.0
2017-Sep-13 10:59N 53°60' E 011°13'0 0.0
2017-Sep-13 10:26N 53°60' E 011°13'0 0.0
2017-Sep-13 09:56N 53°60' E 011°13'0 0.0
2017-Sep-13 09:20N 53°60' E 011°13'0 0.0
2017-Sep-13 08:53N 53°60' E 011°13'0 0.0
2017-Sep-13 08:29N 53°60' E 011°13'0 0.0
2017-Sep-13 07:56N 53°60' E 011°13'0 0.0
2017-Sep-13 07:17N 53°60' E 011°13'0 0.0
2017-Sep-13 06:59N 53°60' E 011°13'0 0.0
2017-Sep-13 06:29N 53°60' E 011°13'0 0.0
2017-Sep-13 05:59N 53°60' E 011°13'0 0.0
2017-Sep-13 05:29N 53°60' E 011°13'0 0.0
2017-Sep-13 04:59N 53°60' E 011°13'0 0.0
2017-Sep-13 04:29N 53°60' E 011°13'0 0.0
2017-Sep-13 03:59N 53°60' E 011°13'0 0.0
2017-Sep-13 03:29N 53°60' E 011°13'0 0.0
2017-Sep-13 02:59N 53°60' E 011°13'0 0.0
2017-Sep-13 02:29N 53°60' E 011°13'0 0.0
2017-Sep-13 01:59N 53°60' E 011°13'0 0.0
2017-Sep-13 01:26N 53°60' E 011°13'0 0.0
2017-Sep-13 00:59N 53°60' E 011°13'0 0.0
2017-Sep-13 00:29N 53°60' E 011°13'0 0.0
2017-Sep-12 23:59N 53°60' E 011°13'0 0.0
2017-Sep-12 23:29N 53°60' E 011°13'0 0.0
2017-Sep-12 22:59N 53°60' E 011°13'0 0.0
2017-Sep-12 22:29N 53°60' E 011°13'0 0.0
2017-Sep-12 21:59N 53°60' E 011°13'0 0.0
2017-Sep-12 21:29N 53°60' E 011°13'0 0.0
2017-Sep-12 20:59N 53°60' E 011°13'0 0.0
2017-Sep-12 20:29N 53°60' E 011°13'0 0.0
2017-Sep-12 19:59N 53°60' E 011°13'0 0.0
2017-Sep-12 19:29N 53°60' E 011°13'0 0.0
2017-Sep-12 18:59N 53°60' E 011°13'0 0.0
2017-Sep-12 18:29N 53°60' E 011°13'1 1.8
2017-Sep-12 18:00N 54°00' E 011°14'3 5.4
2017-Sep-12 17:30N 54°03' E 011°16'4 5.1
2017-Sep-12 16:45N 54°05' E 011°21'1 5.1
2017-Sep-12 16:30N 54°06' E 011°23'13 2.1
2017-Sep-12 10:25N 54°15' E 011°09'1 3.0
2017-Sep-12 10:00N 54°16' E 011°08'3 5.2
2017-Sep-12 09:30N 54°19' E 011°10'3 5.5
2017-Sep-12 09:00N 54°20' E 011°13'2 4.8
2017-Sep-12 08:30N 54°22' E 011°17'2 3.8
2017-Sep-12 08:00N 54°23' E 011°19'1 2.6
2017-Sep-12 07:30N 54°24' E 011°21'2 3.4
2017-Sep-12 07:00N 54°26' E 011°21'1 2.4
2017-Sep-12 06:30N 54°26' E 011°19'0 0.1
2017-Sep-12 04:13N 54°26' E 011°19'0 0.0
2017-Sep-12 03:52N 54°26' E 011°19'0 0.0
2017-Sep-12 03:25N 54°26' E 011°19'0 0.0
2017-Sep-12 02:55N 54°26' E 011°19'0 0.0
2017-Sep-12 02:28N 54°26' E 011°19'0 0.0
2017-Sep-12 01:58N 54°26' E 011°19'0 0.0
2017-Sep-12 01:25N 54°26' E 011°19'0 0.0
2017-Sep-12 00:58N 54°26' E 011°19'0 0.0
2017-Sep-12 00:28N 54°26' E 011°19'0 0.0
2017-Sep-11 23:58N 54°26' E 011°19'0 0.0
2017-Sep-11 23:28N 54°26' E 011°19'0 0.0
2017-Sep-11 22:58N 54°26' E 011°19'0 0.0
2017-Sep-11 22:28N 54°26' E 011°19'0 0.0
2017-Sep-11 21:58N 54°26' E 011°19'0 0.0
2017-Sep-11 21:28N 54°26' E 011°19'0 0.0
2017-Sep-11 20:58N 54°26' E 011°19'0 0.0
2017-Sep-11 20:28N 54°26' E 011°19'0 0.0
2017-Sep-11 19:58N 54°26' E 011°19'0 0.0
2017-Sep-11 19:28N 54°26' E 011°19'0 0.0
2017-Sep-11 18:58N 54°26' E 011°19'0 0.0
2017-Sep-11 18:28N 54°26' E 011°19'0 0.0
2017-Sep-11 17:58N 54°26' E 011°19'0 0.0
2017-Sep-11 17:28N 54°26' E 011°19'0 0.0
2017-Sep-11 16:55N 54°26' E 011°19'0 0.0
2017-Sep-11 16:28N 54°26' E 011°19'0 0.0
2017-Sep-11 15:58N 54°26' E 011°18'0 0.0
2017-Sep-11 15:29N 54°26' E 011°18'0 0.0
2017-Sep-11 15:00N 54°26' E 011°18'5 4.7
2017-Sep-11 14:02N 54°24' E 011°25'0 6.7
2017-Sep-11 14:00N 54°23' E 011°25'3 5.7
2017-Sep-11 13:30N 54°22' E 011°29'3 6.1
2017-Sep-11 13:00N 54°22' E 011°34'  

Dump ship's entire track history